createdAt,value
2023-02-25T00:00:08.141Z,69.87
2023-02-25T00:02:34.688Z,70.59
2023-02-25T00:05:01.741Z,70.93
2023-02-25T00:07:35.695Z,71.65
2023-02-25T00:10:02.371Z,70.32
2023-02-25T00:12:30.816Z,69.73
2023-02-25T00:14:57.187Z,69.68
2023-02-25T00:17:26.776Z,69.68
2023-02-25T00:19:55.654Z,70.35
2023-02-25T00:22:22.145Z,69.86
2023-02-25T00:24:55.751Z,68.57
2023-02-25T00:27:22.319Z,68.80
2023-02-25T00:29:49.761Z,69.23
2023-02-25T00:32:16.356Z,68.58
2023-02-25T00:34:44.361Z,68.43
2023-02-25T00:37:10.900Z,67.90
2023-02-25T00:39:37.714Z,68.19
2023-02-25T00:42:04.519Z,68.77
2023-02-25T00:44:33.814Z,67.94
2023-02-25T00:47:01.402Z,66.50
2023-02-25T00:49:32.568Z,66.54
2023-02-25T00:52:02.049Z,67.52
2023-02-25T00:54:29.947Z,67.06
2023-02-25T00:56:56.377Z,66.61
2023-02-25T00:59:31.923Z,66.49
2023-02-25T01:01:58.529Z,65.89
2023-02-25T01:04:25.098Z,66.31
2023-02-25T01:06:52.291Z,66.62
2023-02-25T01:09:19.175Z,65.59
2023-02-25T01:11:48.134Z,65.58
2023-02-25T01:14:14.926Z,64.29
2023-02-25T01:16:41.633Z,66.16
2023-02-25T01:19:08.713Z,65.14
2023-02-25T01:21:35.165Z,65.21
2023-02-25T01:24:01.644Z,64.92
2023-02-25T01:26:28.336Z,64.64
2023-02-25T01:28:56.478Z,64.48
2023-02-25T01:31:26.073Z,64.59
2023-02-25T01:33:54.909Z,64.65
2023-02-25T01:36:21.833Z,65.54
2023-02-25T01:38:51.202Z,63.69
2023-02-25T01:41:19.251Z,64.64
2023-02-25T01:43:45.920Z,65.08
2023-02-25T01:46:12.810Z,64.08
2023-02-25T01:48:39.195Z,64.47
2023-02-25T01:51:05.687Z,64.77
2023-02-25T01:53:32.258Z,64.73
2023-02-25T01:55:58.737Z,65.40
2023-02-25T01:58:25.430Z,66.34
2023-02-25T02:00:51.967Z,65.82
2023-02-25T02:03:19.951Z,65.64
2023-02-25T02:05:47.784Z,65.29
2023-02-25T02:08:14.305Z,65.22
2023-02-25T02:10:41.734Z,65.33
2023-02-25T02:13:09.172Z,66.49
2023-02-25T02:15:35.543Z,66.64
2023-02-25T02:18:02.061Z,64.90
2023-02-25T02:20:28.698Z,66.25
2023-02-25T02:22:55.480Z,65.79
2023-02-25T02:25:29.218Z,65.88
2023-02-25T02:27:58.895Z,65.60
2023-02-25T02:30:25.578Z,65.76
2023-02-25T02:32:52.414Z,66.28
2023-02-25T02:35:18.891Z,65.36
2023-02-25T02:37:45.596Z,65.24
2023-02-25T02:40:12.409Z,64.94
2023-02-25T02:42:41.224Z,66.14
2023-02-25T02:45:07.760Z,66.19
2023-02-25T02:47:34.378Z,67.26
2023-02-25T02:50:01.067Z,67.56
2023-02-25T02:52:27.708Z,68.15
2023-02-25T02:54:54.489Z,67.95
2023-02-25T02:57:23.707Z,68.58
2023-02-25T02:59:50.666Z,68.32
2023-02-25T03:02:17.038Z,68.97
2023-02-25T03:04:43.453Z,67.52
2023-02-25T03:07:10.846Z,68.26
2023-02-25T03:09:38.863Z,68.93
2023-02-25T03:12:05.326Z,68.89
2023-02-25T03:14:32.366Z,69.37
2023-02-25T03:16:58.867Z,70.21
2023-02-25T03:19:25.743Z,68.90
2023-02-25T03:21:52.537Z,68.75
2023-02-25T03:24:19.038Z,69.87
2023-02-25T03:26:45.465Z,69.63
2023-02-25T03:29:13.333Z,70.04
2023-02-25T03:31:39.947Z,69.28
2023-02-25T03:34:08.583Z,68.91
2023-02-25T03:36:34.990Z,68.09
2023-02-25T03:39:02.888Z,68.37
2023-02-25T03:41:29.370Z,67.43
2023-02-25T03:43:56.131Z,67.84
2023-02-25T03:46:23.169Z,68.35
2023-02-25T03:48:49.866Z,68.54
2023-02-25T03:51:16.436Z,67.83
2023-02-25T03:53:42.932Z,68.37
2023-02-25T03:56:12.008Z,68.21
2023-02-25T03:58:38.709Z,68.25
2023-02-25T04:01:06.944Z,68.26
2023-02-25T04:03:33.644Z,68.68
2023-02-25T04:06:00.232Z,68.12
2023-02-25T04:08:27.028Z,68.69
2023-02-25T04:10:53.530Z,69.86
2023-02-25T04:13:20.115Z,70.30
2023-02-25T04:15:46.675Z,70.30
2023-02-25T04:18:13.535Z,70.35
2023-02-25T04:20:47.940Z,70.26
2023-02-25T04:23:14.387Z,70.49
2023-02-25T04:25:40.978Z,70.30
2023-02-25T04:28:09.131Z,70.24
2023-02-25T04:30:35.656Z,70.53
2023-02-25T04:33:03.238Z,71.42
2023-02-25T04:35:29.968Z,72.32
2023-02-25T04:37:56.459Z,72.26
2023-02-25T04:40:25.173Z,72.58
2023-02-25T04:42:51.743Z,72.28
2023-02-25T04:45:19.676Z,72.36
2023-02-25T04:47:46.306Z,71.68
2023-02-25T04:50:12.893Z,72.20
2023-02-25T04:52:39.397Z,71.99
2023-02-25T04:55:06.470Z,71.76
2023-02-25T04:57:32.853Z,72.13
2023-02-25T05:00:02.988Z,72.49
2023-02-25T05:02:29.829Z,72.35
2023-02-25T05:04:56.970Z,72.83
2023-02-25T05:07:27.366Z,72.41
2023-02-25T05:09:53.890Z,72.27
2023-02-25T05:12:21.793Z,72.96
2023-02-25T05:14:48.772Z,73.13
2023-02-25T05:17:17.406Z,72.47
2023-02-25T05:19:44.858Z,72.45
2023-02-25T05:22:11.299Z,73.37
2023-02-25T05:24:38.589Z,73.43
2023-02-25T05:27:05.792Z,73.62
2023-02-25T05:29:32.258Z,73.80
2023-02-25T05:31:59.229Z,73.69
2023-02-25T05:34:25.700Z,73.78
2023-02-25T05:36:52.518Z,73.32
2023-02-25T05:39:20.024Z,72.95
2023-02-25T05:41:46.491Z,72.82
2023-02-25T05:44:13.066Z,72.19
2023-02-25T05:46:39.841Z,71.73
2023-02-25T05:49:06.311Z,71.82
2023-02-25T05:51:35.281Z,71.74
2023-02-25T06:56:33.852Z,74.24
2023-02-25T06:59:01.101Z,74.21
2023-02-25T07:01:27.887Z,73.76
2023-02-25T07:09:33.725Z,73.68
2023-02-25T07:21:22.054Z,73.50
2023-02-25T07:45:58.890Z,71.80
2023-02-25T07:57:42.320Z,71.88
2023-02-25T08:05:09.057Z,69.99
2023-02-25T08:27:30.508Z,67.56
2023-02-25T11:34:47.274Z,53.75
2023-02-25T11:37:13.902Z,53.75
2023-02-25T11:39:40.327Z,54.26
2023-02-25T11:42:06.808Z,52.37
2023-02-25T11:44:33.232Z,52.18
2023-02-25T11:47:04.138Z,52.73
2023-02-25T11:49:30.525Z,52.50
2023-02-25T11:51:56.857Z,52.92
2023-02-25T11:54:23.471Z,53.90
2023-02-25T11:56:49.966Z,53.78
2023-02-25T11:59:17.242Z,52.75
2023-02-25T12:01:45.780Z,52.49
2023-02-25T12:04:12.480Z,52.48
2023-02-25T12:06:39.070Z,53.13
2023-02-25T12:09:05.573Z,54.52
2023-02-25T12:11:32.443Z,52.38
2023-02-25T12:14:01.288Z,53.70
2023-02-25T12:16:28.126Z,53.43
2023-02-25T12:18:54.477Z,53.75
2023-02-25T12:21:21.151Z,52.98
2023-02-25T12:23:47.745Z,52.66
2023-02-25T12:26:14.786Z,53.47
2023-02-25T12:28:41.174Z,55.15
2023-02-25T12:31:07.648Z,54.62
2023-02-25T12:33:34.123Z,53.82
2023-02-25T12:36:02.960Z,53.23
2023-02-25T12:38:29.645Z,51.68
2023-02-25T12:40:56.936Z,51.74
2023-02-25T12:43:23.514Z,51.49
2023-02-25T12:45:51.886Z,50.67
2023-02-25T12:48:18.370Z,50.58
2023-02-25T12:50:44.900Z,51.17
2023-02-25T12:53:13.133Z,51.03
2023-02-25T12:55:41.209Z,49.98
2023-02-25T12:58:07.767Z,49.94
2023-02-25T13:00:36.309Z,49.44
2023-02-25T13:03:03.093Z,49.06
2023-02-25T13:05:29.538Z,49.51
2023-02-25T13:07:55.926Z,51.38
2023-02-25T13:10:22.627Z,54.20
2023-02-25T13:12:51.278Z,56.38
2023-02-25T13:15:18.296Z,55.25
2023-02-25T13:17:44.770Z,56.44
2023-02-25T13:20:12.749Z,56.00
2023-02-25T13:22:39.247Z,55.26
2023-02-25T13:25:05.638Z,55.49
2023-02-25T13:27:31.990Z,56.71
2023-02-25T13:29:58.329Z,57.16
2023-02-25T13:32:25.115Z,57.80
2023-02-25T13:34:51.519Z,57.39
2023-02-25T13:37:17.932Z,58.12
2023-02-25T13:39:44.388Z,58.69
2023-02-25T13:42:10.744Z,60.46
2023-02-25T13:44:37.114Z,59.05
2023-02-25T13:47:03.464Z,59.28
2023-02-25T13:49:29.815Z,59.51
2023-02-25T13:51:56.645Z,58.39
2023-02-25T13:54:23.410Z,58.22
2023-02-25T13:56:49.913Z,59.24
2023-02-25T13:59:16.251Z,58.58
2023-02-25T14:01:43.910Z,58.58
2023-02-25T14:04:10.935Z,58.59
2023-02-25T14:06:38.349Z,57.90
2023-02-25T14:09:04.720Z,57.06
2023-02-25T14:11:31.366Z,57.26
2023-02-25T14:13:57.748Z,58.13
2023-02-25T14:16:24.088Z,56.66
2023-02-25T14:18:50.457Z,59.01
2023-02-25T14:21:16.995Z,57.69
2023-02-25T14:23:43.479Z,57.81
2023-02-25T14:26:10.743Z,58.10
2023-02-25T14:28:37.112Z,57.21
2023-02-25T14:31:04.774Z,58.09
2023-02-25T14:33:32.189Z,56.64
2023-02-25T14:35:58.560Z,57.82
2023-02-25T14:38:25.044Z,57.55
2023-02-25T14:40:51.424Z,60.31
2023-02-25T14:43:18.022Z,60.79
2023-02-25T14:45:44.436Z,60.04
2023-02-25T14:48:11.581Z,60.03
2023-02-25T20:06:39.418Z,60.45
2023-02-25T20:09:10.748Z,60.20
2023-02-25T20:11:44.693Z,60.00
2023-02-25T20:14:14.330Z,59.98
2023-02-25T20:16:49.697Z,59.64
2023-02-25T20:19:17.768Z,59.39
2023-02-25T20:21:45.113Z,59.79
2023-02-25T20:24:12.691Z,59.30
2023-02-25T20:26:45.545Z,59.33
2023-02-25T20:29:14.487Z,58.43
2023-02-25T20:31:41.861Z,58.50
2023-02-25T20:34:08.587Z,58.21
2023-02-25T20:36:38.256Z,58.10
2023-02-25T20:39:11.065Z,57.44
2023-02-25T20:41:38.837Z,57.96
2023-02-25T20:44:07.277Z,57.20
2023-02-25T20:46:34.170Z,57.97
2023-02-25T20:49:03.691Z,57.44
2023-02-25T20:51:30.252Z,56.09
2023-02-25T20:54:06.802Z,56.97
2023-02-25T20:56:33.521Z,55.94
2023-02-25T20:59:00.055Z,55.66
2023-02-25T21:01:26.982Z,54.70
2023-02-25T21:03:55.511Z,54.92
2023-02-25T21:06:22.893Z,54.02
2023-02-25T21:08:53.034Z,54.41
2023-02-25T21:11:20.364Z,55.20
2023-02-25T21:13:47.802Z,54.98
2023-02-25T21:16:14.407Z,53.94
2023-02-25T21:18:43.363Z,54.26
2023-02-25T21:21:10.867Z,53.93
2023-02-25T21:23:43.324Z,54.31
2023-02-25T21:26:10.234Z,54.30
2023-02-25T21:28:47.892Z,53.85
2023-02-25T21:34:03.366Z,52.44
2023-02-25T21:36:36.554Z,53.19
2023-02-25T21:39:03.763Z,53.43
2023-02-25T21:41:36.193Z,53.62
2023-02-25T21:44:12.158Z,54.62
2023-02-25T21:46:40.116Z,53.71
2023-02-25T21:49:12.073Z,53.24
2023-02-25T21:57:49.711Z,53.13
2023-02-25T22:00:07.386Z,51.05
2023-02-25T22:05:36.001Z,51.23
2023-02-25T22:10:50.428Z,50.53
2023-02-25T22:13:20.499Z,50.98
2023-02-25T22:15:59.759Z,50.81
2023-02-25T22:18:33.362Z,50.68
2023-02-25T22:23:57.242Z,51.16
2023-02-25T22:26:32.406Z,50.64
2023-02-25T22:29:07.028Z,51.20
2023-02-25T22:31:33.656Z,51.03
2023-02-25T22:34:00.121Z,50.83
2023-02-25T22:36:27.404Z,49.76
2023-02-25T22:38:59.563Z,50.87
2023-02-25T22:41:28.371Z,51.32
2023-02-25T22:44:03.764Z,51.10
2023-02-25T22:46:46.338Z,51.30
2023-02-25T22:49:12.982Z,50.92
2023-02-25T22:51:39.399Z,51.21
2023-02-25T22:54:08.785Z,50.90
2023-02-25T22:56:35.413Z,50.94
2023-02-25T22:59:02.199Z,51.06
2023-02-25T23:01:28.957Z,51.48
2023-02-25T23:03:56.001Z,51.71
2023-02-25T23:06:34.219Z,51.71
2023-02-25T23:09:08.733Z,51.95
2023-02-25T23:11:35.620Z,51.96
2023-02-25T23:14:05.531Z,51.95
2023-02-25T23:16:32.859Z,52.04
2023-02-25T23:18:59.511Z,52.44
2023-02-25T23:21:26.377Z,52.58
2023-02-25T23:23:57.440Z,53.00
2023-02-25T23:26:25.029Z,52.31
2023-02-25T23:29:05.612Z,52.85
2023-02-25T23:31:47.064Z,53.10
2023-02-25T23:37:04.629Z,52.52
2023-02-25T23:40:02.244Z,52.58
2023-02-25T23:48:07.684Z,53.18
2023-02-25T23:50:34.734Z,53.61
2023-02-25T23:53:11.938Z,53.34
2023-02-25T23:58:32.976Z,53.02
